sensor_id;sensor_type;location;lat;lon;timestamp;temperature;humidity
69436;SHT31;56625;54.322;18.582;2023-09-18T00:00:39;17.64;87.10
69436;SHT31;56625;54.322;18.582;2023-09-18T00:03:45;17.63;87.17
69436;SHT31;56625;54.322;18.582;2023-09-18T00:06:47;17.60;87.29
69436;SHT31;56625;54.322;18.582;2023-09-18T00:10:10;17.61;87.24
69436;SHT31;56625;54.322;18.582;2023-09-18T00:14:16;17.60;87.16
69436;SHT31;56625;54.322;18.582;2023-09-18T00:28:13;17.52;86.82
69436;SHT31;56625;54.322;18.582;2023-09-18T00:32:28;17.43;86.53
69436;SHT31;56625;54.322;18.582;2023-09-18T00:36:10;17.36;86.63
69436;SHT31;56625;54.322;18.582;2023-09-18T00:43:09;17.30;86.45
69436;SHT31;56625;54.322;18.582;2023-09-18T00:46:21;17.20;86.44
69436;SHT31;56625;54.322;18.582;2023-09-18T00:49:18;17.17;86.51
69436;SHT31;56625;54.322;18.582;2023-09-18T00:51:53;17.14;86.59
69436;SHT31;56625;54.322;18.582;2023-09-18T00:54:57;17.13;86.70
69436;SHT31;56625;54.322;18.582;2023-09-18T01:02:11;17.05;86.74
69436;SHT31;56625;54.322;18.582;2023-09-18T01:06:13;16.95;86.40
69436;SHT31;56625;54.322;18.582;2023-09-18T01:19:14;16.91;86.98
69436;SHT31;56625;54.322;18.582;2023-09-18T01:23:09;16.88;86.92
69436;SHT31;56625;54.322;18.582;2023-09-18T01:26:30;16.84;86.98
69436;SHT31;56625;54.322;18.582;2023-09-18T01:29:28;16.83;86.96
69436;SHT31;56625;54.322;18.582;2023-09-18T01:33:19;16.80;86.97
69436;SHT31;56625;54.322;18.582;2023-09-18T01:36:57;16.78;87.05
69436;SHT31;56625;54.322;18.582;2023-09-18T01:40:31;16.76;87.23
69436;SHT31;56625;54.322;18.582;2023-09-18T01:44:03;16.76;87.15
69436;SHT31;56625;54.322;18.582;2023-09-18T01:46:35;16.75;87.24
69436;SHT31;56625;54.322;18.582;2023-09-18T01:49:07;16.78;87.53
69436;SHT31;56625;54.322;18.582;2023-09-18T01:51:36;16.81;87.65
69436;SHT31;56625;54.322;18.582;2023-09-18T01:54:18;16.83;87.68
69436;SHT31;56625;54.322;18.582;2023-09-18T01:56:53;16.81;87.39
69436;SHT31;56625;54.322;18.582;2023-09-18T01:59:37;16.76;87.24
69436;SHT31;56625;54.322;18.582;2023-09-18T02:02:39;16.74;87.37
69436;SHT31;56625;54.322;18.582;2023-09-18T02:06:30;16.70;87.22
69436;SHT31;56625;54.322;18.582;2023-09-18T02:09:03;16.66;87.15
69436;SHT31;56625;54.322;18.582;2023-09-18T02:11:46;16.58;86.95
69436;SHT31;56625;54.322;18.582;2023-09-18T02:15:21;16.53;86.99
69436;SHT31;56625;54.322;18.582;2023-09-18T02:19:03;16.44;86.78
69436;SHT31;56625;54.322;18.582;2023-09-18T02:22:44;16.35;86.94
69436;SHT31;56625;54.322;18.582;2023-09-18T02:26:17;16.31;87.14
69436;SHT31;56625;54.322;18.582;2023-09-18T02:30:10;16.27;87.15
69436;SHT31;56625;54.322;18.582;2023-09-18T02:32:51;16.24;87.16
69436;SHT31;56625;54.322;18.582;2023-09-18T02:35:23;16.25;87.39
69436;SHT31;56625;54.322;18.582;2023-09-18T02:37:58;16.29;87.65
69436;SHT31;56625;54.322;18.582;2023-09-18T02:40:34;16.28;87.40
69436;SHT31;56625;54.322;18.582;2023-09-18T02:43:07;16.24;87.27
69436;SHT31;56625;54.322;18.582;2023-09-18T02:45:39;16.16;87.05
69436;SHT31;56625;54.322;18.582;2023-09-18T02:48:19;16.11;87.21
69436;SHT31;56625;54.322;18.582;2023-09-18T02:50:47;16.08;87.42
69436;SHT31;56625;54.322;18.582;2023-09-18T02:53:20;16.07;87.53
69436;SHT31;56625;54.322;18.582;2023-09-18T02:55:53;16.08;87.68
69436;SHT31;56625;54.322;18.582;2023-09-18T02:58:23;16.12;87.90
69436;SHT31;56625;54.322;18.582;2023-09-18T03:00:57;16.11;87.68
69436;SHT31;56625;54.322;18.582;2023-09-18T03:03:30;16.09;87.60
69436;SHT31;56625;54.322;18.582;2023-09-18T03:06:02;16.09;87.73
69436;SHT31;56625;54.322;18.582;2023-09-18T03:08:34;16.08;87.82
69436;SHT31;56625;54.322;18.582;2023-09-18T03:11:03;16.09;87.79
69436;SHT31;56625;54.322;18.582;2023-09-18T03:13:44;16.11;87.82
69436;SHT31;56625;54.322;18.582;2023-09-18T03:16:16;16.05;87.44
69436;SHT31;56625;54.322;18.582;2023-09-18T03:18:45;15.98;87.25
69436;SHT31;56625;54.322;18.582;2023-09-18T03:21:13;15.94;87.33
69436;SHT31;56625;54.322;18.582;2023-09-18T03:23:40;15.90;87.49
69436;SHT31;56625;54.322;18.582;2023-09-18T03:26:09;15.88;87.45
69436;SHT31;56625;54.322;18.582;2023-09-18T03:28:36;15.83;87.28
69436;SHT31;56625;54.322;18.582;2023-09-18T03:31:04;15.80;87.38
69436;SHT31;56625;54.322;18.582;2023-09-18T03:33:34;15.79;87.49
69436;SHT31;56625;54.322;18.582;2023-09-18T03:36:02;15.79;87.58
69436;SHT31;56625;54.322;18.582;2023-09-18T03:38:32;15.76;87.45
69436;SHT31;56625;54.322;18.582;2023-09-18T03:41:03;15.73;87.26
69436;SHT31;56625;54.322;18.582;2023-09-18T03:43:31;15.67;87.21
69436;SHT31;56625;54.322;18.582;2023-09-18T03:46:03;15.61;87.26
69436;SHT31;56625;54.322;18.582;2023-09-18T03:48:34;15.57;87.40
69436;SHT31;56625;54.322;18.582;2023-09-18T03:51:06;15.56;87.67
69436;SHT31;56625;54.322;18.582;2023-09-18T03:53:38;15.55;87.56
69436;SHT31;56625;54.322;18.582;2023-09-18T03:56:06;15.52;87.49
69436;SHT31;56625;54.322;18.582;2023-09-18T03:58:36;15.49;87.57
69436;SHT31;56625;54.322;18.582;2023-09-18T04:01:07;15.48;87.69
69436;SHT31;56625;54.322;18.582;2023-09-18T04:03:40;15.48;87.77
69436;SHT31;56625;54.322;18.582;2023-09-18T04:06:30;15.44;87.70
69436;SHT31;56625;54.322;18.582;2023-09-18T04:09:10;15.41;87.88
69436;SHT31;56625;54.322;18.582;2023-09-18T04:11:48;15.40;88.09
69436;SHT31;56625;54.322;18.582;2023-09-18T04:14:16;15.41;88.14
69436;SHT31;56625;54.322;18.582;2023-09-18T04:16:45;15.46;88.54
69436;SHT31;56625;54.322;18.582;2023-09-18T04:19:15;15.49;88.46
69436;SHT31;56625;54.322;18.582;2023-09-18T04:21:45;15.48;88.20
69436;SHT31;56625;54.322;18.582;2023-09-18T04:24:13;15.47;88.03
69436;SHT31;56625;54.322;18.582;2023-09-18T04:26:41;15.45;88.00
69436;SHT31;56625;54.322;18.582;2023-09-18T04:29:09;15.42;87.92
69436;SHT31;56625;54.322;18.582;2023-09-18T04:31:37;15.41;88.07
69436;SHT31;56625;54.322;18.582;2023-09-18T04:34:05;15.43;88.44
69436;SHT31;56625;54.322;18.582;2023-09-18T04:36:34;15.56;89.28
69436;SHT31;56625;54.322;18.582;2023-09-18T04:39:05;15.80;89.83
69436;SHT31;56625;54.322;18.582;2023-09-18T04:41:34;16.03;90.18
69436;SHT31;56625;54.322;18.582;2023-09-18T04:44:02;16.22;89.78
69436;SHT31;56625;54.322;18.582;2023-09-18T04:46:30;16.34;89.34
69436;SHT31;56625;54.322;18.582;2023-09-18T04:48:58;16.48;89.15
69436;SHT31;56625;54.322;18.582;2023-09-18T04:51:26;16.60;88.74
69436;SHT31;56625;54.322;18.582;2023-09-18T04:53:54;16.60;87.68
69436;SHT31;56625;54.322;18.582;2023-09-18T04:56:24;16.60;87.22
69436;SHT31;56625;54.322;18.582;2023-09-18T04:58:57;16.60;86.95
69436;SHT31;56625;54.322;18.582;2023-09-18T05:01:27;16.64;86.97
69436;SHT31;56625;54.322;18.582;2023-09-18T05:03:55;16.75;87.49
69436;SHT31;56625;54.322;18.582;2023-09-18T05:06:26;16.97;87.65
69436;SHT31;56625;54.322;18.582;2023-09-18T05:08:55;16.99;86.13
69436;SHT31;56625;54.322;18.582;2023-09-18T05:11:23;16.92;85.97
69436;SHT31;56625;54.322;18.582;2023-09-18T05:13:50;16.97;86.07
69436;SHT31;56625;54.322;18.582;2023-09-18T05:16:20;16.93;85.71
69436;SHT31;56625;54.322;18.582;2023-09-18T05:18:48;16.93;85.84
69436;SHT31;56625;54.322;18.582;2023-09-18T05:21:16;17.04;86.59
69436;SHT31;56625;54.322;18.582;2023-09-18T05:23:50;17.29;86.75
69436;SHT31;56625;54.322;18.582;2023-09-18T05:26:18;17.40;85.76
69436;SHT31;56625;54.322;18.582;2023-09-18T05:28:46;17.42;85.26
69436;SHT31;56625;54.322;18.582;2023-09-18T05:31:15;17.43;85.02
69436;SHT31;56625;54.322;18.582;2023-09-18T05:33:43;17.44;84.90
69436;SHT31;56625;54.322;18.582;2023-09-18T05:36:12;17.45;84.80
69436;SHT31;56625;54.322;18.582;2023-09-18T05:38:42;17.44;84.76
69436;SHT31;56625;54.322;18.582;2023-09-18T05:41:10;17.55;85.36
69436;SHT31;56625;54.322;18.582;2023-09-18T05:43:38;17.73;85.29
69436;SHT31;56625;54.322;18.582;2023-09-18T05:46:06;17.90;85.22
69436;SHT31;56625;54.322;18.582;2023-09-18T05:48:34;18.07;84.97
69436;SHT31;56625;54.322;18.582;2023-09-18T05:51:02;18.17;84.57
69436;SHT31;56625;54.322;18.582;2023-09-18T05:53:31;18.31;84.60
69436;SHT31;56625;54.322;18.582;2023-09-18T05:56:02;18.41;84.37
69436;SHT31;56625;54.322;18.582;2023-09-18T05:58:31;18.51;84.18
69436;SHT31;56625;54.322;18.582;2023-09-18T06:01:02;18.58;83.93
69436;SHT31;56625;54.322;18.582;2023-09-18T06:03:30;18.61;83.76
69436;SHT31;56625;54.322;18.582;2023-09-18T06:06:03;18.76;84.06
69436;SHT31;56625;54.322;18.582;2023-09-18T06:08:35;18.90;83.71
69436;SHT31;56625;54.322;18.582;2023-09-18T06:11:06;18.97;83.54
69436;SHT31;56625;54.322;18.582;2023-09-18T06:14:56;19.07;82.88
69436;SHT31;56625;54.322;18.582;2023-09-18T06:32:34;19.21;82.89
69436;SHT31;56625;54.322;18.582;2023-09-18T06:35:54;19.35;82.16
69436;SHT31;56625;54.322;18.582;2023-09-18T06:38:33;19.44;82.08
69436;SHT31;56625;54.322;18.582;2023-09-18T06:41:09;19.54;81.87
69436;SHT31;56625;54.322;18.582;2023-09-18T06:49:47;19.87;80.90
69436;SHT31;56625;54.322;18.582;2023-09-18T07:02:48;20.15;78.68
69436;SHT31;56625;54.322;18.582;2023-09-18T07:05:31;20.25;79.02
69436;SHT31;56625;54.322;18.582;2023-09-18T07:08:27;20.37;79.02
69436;SHT31;56625;54.322;18.582;2023-09-18T07:11:26;20.54;78.45
69436;SHT31;56625;54.322;18.582;2023-09-18T07:13:55;20.68;78.39
69436;SHT31;56625;54.322;18.582;2023-09-18T07:16:23;20.86;77.87
69436;SHT31;56625;54.322;18.582;2023-09-18T07:18:51;20.95;76.57
69436;SHT31;56625;54.322;18.582;2023-09-18T07:21:20;20.99;76.61
69436;SHT31;56625;54.322;18.582;2023-09-18T07:23:48;21.10;76.12
69436;SHT31;56625;54.322;18.582;2023-09-18T07:26:18;21.15;75.62
69436;SHT31;56625;54.322;18.582;2023-09-18T07:28:46;21.24;75.58
69436;SHT31;56625;54.322;18.582;2023-09-18T07:31:14;21.34;75.42
69436;SHT31;56625;54.322;18.582;2023-09-18T07:33:42;21.48;74.80
69436;SHT31;56625;54.322;18.582;2023-09-18T07:36:10;21.57;74.06
69436;SHT31;56625;54.322;18.582;2023-09-18T07:38:38;21.56;73.08
69436;SHT31;56625;54.322;18.582;2023-09-18T07:41:06;21.58;73.65
69436;SHT31;56625;54.322;18.582;2023-09-18T07:43:34;21.71;73.90
69436;SHT31;56625;54.322;18.582;2023-09-18T07:46:02;21.82;72.62
69436;SHT31;56625;54.322;18.582;2023-09-18T07:48:30;21.91;72.89
69436;SHT31;56625;54.322;18.582;2023-09-18T07:50:58;22.02;71.79
69436;SHT31;56625;54.322;18.582;2023-09-18T07:53:26;22.08;71.75
69436;SHT31;56625;54.322;18.582;2023-09-18T07:55:56;22.18;71.34
69436;SHT31;56625;54.322;18.582;2023-09-18T07:58:27;22.32;71.48
69436;SHT31;56625;54.322;18.582;2023-09-18T08:00:55;22.48;70.70
69436;SHT31;56625;54.322;18.582;2023-09-18T08:03:25;22.61;70.23
69436;SHT31;56625;54.322;18.582;2023-09-18T08:05:54;22.70;69.69
69436;SHT31;56625;54.322;18.582;2023-09-18T08:08:23;22.78;69.16
69436;SHT31;56625;54.322;18.582;2023-09-18T08:10:52;22.89;69.28
69436;SHT31;56625;54.322;18.582;2023-09-18T08:13:21;23.00;68.64
69436;SHT31;56625;54.322;18.582;2023-09-18T08:15:50;23.08;67.93
69436;SHT31;56625;54.322;18.582;2023-09-18T08:18:18;23.13;67.49
69436;SHT31;56625;54.322;18.582;2023-09-18T08:20:47;23.20;68.19
69436;SHT31;56625;54.322;18.582;2023-09-18T08:23:15;23.36;67.47
69436;SHT31;56625;54.322;18.582;2023-09-18T08:25:43;23.39;67.20
69436;SHT31;56625;54.322;18.582;2023-09-18T08:28:11;23.45;67.06
69436;SHT31;56625;54.322;18.582;2023-09-18T08:30:39;23.50;66.35
69436;SHT31;56625;54.322;18.582;2023-09-18T08:33:08;23.59;66.95
69436;SHT31;56625;54.322;18.582;2023-09-18T08:35:35;23.71;66.29
69436;SHT31;56625;54.322;18.582;2023-09-18T08:38:03;23.82;65.80
69436;SHT31;56625;54.322;18.582;2023-09-18T08:40:32;23.87;65.08
69436;SHT31;56625;54.322;18.582;2023-09-18T08:43:02;23.80;64.77
69436;SHT31;56625;54.322;18.582;2023-09-18T08:45:35;23.82;65.07
69436;SHT31;56625;54.322;18.582;2023-09-18T08:48:16;23.97;64.88
69436;SHT31;56625;54.322;18.582;2023-09-18T08:50:45;24.08;64.53
69436;SHT31;56625;54.322;18.582;2023-09-18T08:53:14;24.09;63.83
69436;SHT31;56625;54.322;18.582;2023-09-18T08:55:43;24.13;63.91
69436;SHT31;56625;54.322;18.582;2023-09-18T08:58:11;24.14;63.66
69436;SHT31;56625;54.322;18.582;2023-09-18T09:00:39;24.15;63.86
69436;SHT31;56625;54.322;18.582;2023-09-18T09:03:07;24.31;64.55
69436;SHT31;56625;54.322;18.582;2023-09-18T09:05:35;24.51;63.56
69436;SHT31;56625;54.322;18.582;2023-09-18T09:08:03;24.50;62.94
69436;SHT31;56625;54.322;18.582;2023-09-18T09:10:31;24.49;63.23
69436;SHT31;56625;54.322;18.582;2023-09-18T09:12:59;24.46;63.08
69436;SHT31;56625;54.322;18.582;2023-09-18T09:15:46;24.44;63.61
69436;SHT31;56625;54.322;18.582;2023-09-18T09:18:15;24.50;63.21
69436;SHT31;56625;54.322;18.582;2023-09-18T09:20:57;24.65;63.33
69436;SHT31;56625;54.322;18.582;2023-09-18T09:23:29;24.77;62.71
69436;SHT31;56625;54.322;18.582;2023-09-18T09:26:21;24.88;62.28
69436;SHT31;56625;54.322;18.582;2023-09-18T09:28:51;24.93;61.81
69436;SHT31;56625;54.322;18.582;2023-09-18T09:31:24;24.96;62.05
69436;SHT31;56625;54.322;18.582;2023-09-18T09:33:55;25.04;61.91
69436;SHT31;56625;54.322;18.582;2023-09-18T09:36:26;25.14;61.75
69436;SHT31;56625;54.322;18.582;2023-09-18T09:38:55;25.24;61.77
69436;SHT31;56625;54.322;18.582;2023-09-18T09:41:27;25.33;61.45
69436;SHT31;56625;54.322;18.582;2023-09-18T09:43:57;25.46;61.45
69436;SHT31;56625;54.322;18.582;2023-09-18T09:46:26;25.64;60.70
69436;SHT31;56625;54.322;18.582;2023-09-18T09:49:02;25.77;60.50
69436;SHT31;56625;54.322;18.582;2023-09-18T09:51:32;25.84;60.16
69436;SHT31;56625;54.322;18.582;2023-09-18T09:54:02;25.87;59.52
69436;SHT31;56625;54.322;18.582;2023-09-18T09:59:21;26.03;59.82
69436;SHT31;56625;54.322;18.582;2023-09-18T10:01:49;26.19;59.17
69436;SHT31;56625;54.322;18.582;2023-09-18T10:04:18;26.22;58.39
69436;SHT31;56625;54.322;18.582;2023-09-18T10:06:52;26.18;57.91
69436;SHT31;56625;54.322;18.582;2023-09-18T10:09:28;26.22;58.66
69436;SHT31;56625;54.322;18.582;2023-09-18T10:11:57;26.33;57.80
69436;SHT31;56625;54.322;18.582;2023-09-18T10:14:31;26.38;57.65
69436;SHT31;56625;54.322;18.582;2023-09-18T10:17:25;26.51;57.89
69436;SHT31;56625;54.322;18.582;2023-09-18T10:20:01;26.58;57.78
69436;SHT31;56625;54.322;18.582;2023-09-18T10:22:37;26.76;58.17
69436;SHT31;56625;54.322;18.582;2023-09-18T10:25:14;27.00;57.55
69436;SHT31;56625;54.322;18.582;2023-09-18T10:27:48;27.03;56.44
69436;SHT31;56625;54.322;18.582;2023-09-18T10:30:20;27.08;56.51
69436;SHT31;56625;54.322;18.582;2023-09-18T10:32:51;27.17;56.26
69436;SHT31;56625;54.322;18.582;2023-09-18T10:35:19;27.31;56.22
69436;SHT31;56625;54.322;18.582;2023-09-18T10:37:48;27.46;55.59
69436;SHT31;56625;54.322;18.582;2023-09-18T10:40:21;27.46;54.77
69436;SHT31;56625;54.322;18.582;2023-09-18T10:42:50;27.44;54.67
69436;SHT31;56625;54.322;18.582;2023-09-18T10:45:21;27.55;54.94
69436;SHT31;56625;54.322;18.582;2023-09-18T10:47:50;27.59;54.67
69436;SHT31;56625;54.322;18.582;2023-09-18T10:50:23;27.72;54.88
69436;SHT31;56625;54.322;18.582;2023-09-18T10:52:57;27.96;54.19
69436;SHT31;56625;54.322;18.582;2023-09-18T10:55:26;28.14;53.13
69436;SHT31;56625;54.322;18.582;2023-09-18T10:57:55;28.23;52.63
69436;SHT31;56625;54.322;18.582;2023-09-18T11:00:28;28.21;52.33
69436;SHT31;56625;54.322;18.582;2023-09-18T11:06:04;28.01;51.41
69436;SHT31;56625;54.322;18.582;2023-09-18T11:08:35;28.02;50.40
69436;SHT31;56625;54.322;18.582;2023-09-18T11:11:17;28.12;50.48
69436;SHT31;56625;54.322;18.582;2023-09-18T11:13:48;28.22;49.76
69436;SHT31;56625;54.322;18.582;2023-09-18T11:21:32;27.82;50.67
69436;SHT31;56625;54.322;18.582;2023-09-18T11:24:14;27.74;51.29
69436;SHT31;56625;54.322;18.582;2023-09-18T11:26:49;27.79;51.08
69436;SHT31;56625;54.322;18.582;2023-09-18T11:29:23;27.75;50.83
69436;SHT31;56625;54.322;18.582;2023-09-18T11:31:55;27.68;51.42
69436;SHT31;56625;54.322;18.582;2023-09-18T11:34:32;27.59;51.20
69436;SHT31;56625;54.322;18.582;2023-09-18T11:37:18;27.53;51.21
69436;SHT31;56625;54.322;18.582;2023-09-18T11:39:51;27.36;51.72
69436;SHT31;56625;54.322;18.582;2023-09-18T11:42:20;27.21;51.62
69436;SHT31;56625;54.322;18.582;2023-09-18T11:44:54;27.06;52.51
69436;SHT31;56625;54.322;18.582;2023-09-18T11:47:23;26.90;51.75
69436;SHT31;56625;54.322;18.582;2023-09-18T11:49:55;26.90;52.00
69436;SHT31;56625;54.322;18.582;2023-09-18T11:52:27;26.98;51.71
69436;SHT31;56625;54.322;18.582;2023-09-18T11:55:00;27.15;50.77
69436;SHT31;56625;54.322;18.582;2023-09-18T11:57:35;27.35;50.47
69436;SHT31;56625;54.322;18.582;2023-09-18T12:00:03;27.52;50.42
69436;SHT31;56625;54.322;18.582;2023-09-18T12:02:39;27.67;50.21
69436;SHT31;56625;54.322;18.582;2023-09-18T12:05:16;27.82;49.72
69436;SHT31;56625;54.322;18.582;2023-09-18T12:07:46;27.86;48.63
69436;SHT31;56625;54.322;18.582;2023-09-18T12:10:15;27.83;48.47
69436;SHT31;56625;54.322;18.582;2023-09-18T12:12:48;27.84;48.58
69436;SHT31;56625;54.322;18.582;2023-09-18T12:15:17;27.93;49.37
69436;SHT31;56625;54.322;18.582;2023-09-18T12:17:48;28.00;48.90
69436;SHT31;56625;54.322;18.582;2023-09-18T12:20:16;28.06;48.58
69436;SHT31;56625;54.322;18.582;2023-09-18T12:22:48;28.06;47.77
69436;SHT31;56625;54.322;18.582;2023-09-18T12:25:18;28.05;48.16
69436;SHT31;56625;54.322;18.582;2023-09-18T12:27:50;28.12;48.24
69436;SHT31;56625;54.322;18.582;2023-09-18T12:30:21;28.06;47.90
69436;SHT31;56625;54.322;18.582;2023-09-18T12:32:51;27.89;48.25
69436;SHT31;56625;54.322;18.582;2023-09-18T12:35:21;27.84;48.39
69436;SHT31;56625;54.322;18.582;2023-09-18T12:37:51;27.75;48.87
69436;SHT31;56625;54.322;18.582;2023-09-18T12:40:23;27.73;48.45
69436;SHT31;56625;54.322;18.582;2023-09-18T12:42:56;27.70;48.34
69436;SHT31;56625;54.322;18.582;2023-09-18T12:45:25;27.80;48.12
69436;SHT31;56625;54.322;18.582;2023-09-18T12:47:55;27.86;47.46
69436;SHT31;56625;54.322;18.582;2023-09-18T12:50:26;27.86;47.14
69436;SHT31;56625;54.322;18.582;2023-09-18T12:55:36;27.95;47.38
69436;SHT31;56625;54.322;18.582;2023-09-18T12:58:05;27.89;47.59
69436;SHT31;56625;54.322;18.582;2023-09-18T13:00:36;27.81;47.66
69436;SHT31;56625;54.322;18.582;2023-09-18T13:03:04;27.81;47.91
69436;SHT31;56625;54.322;18.582;2023-09-18T13:05:33;27.82;47.27
69436;SHT31;56625;54.322;18.582;2023-09-18T13:08:02;27.91;47.93
69436;SHT31;56625;54.322;18.582;2023-09-18T13:10:45;28.04;47.51
69436;SHT31;56625;54.322;18.582;2023-09-18T13:13:21;28.09;47.04
69436;SHT31;56625;54.322;18.582;2023-09-18T13:15:51;28.04;47.16
69436;SHT31;56625;54.322;18.582;2023-09-18T13:18:22;28.08;47.57
69436;SHT31;56625;54.322;18.582;2023-09-18T13:20:52;28.08;47.49
69436;SHT31;56625;54.322;18.582;2023-09-18T13:23:27;28.05;47.34
69436;SHT31;56625;54.322;18.582;2023-09-18T13:26:01;28.08;47.23
69436;SHT31;56625;54.322;18.582;2023-09-18T13:28:31;28.15;46.76
69436;SHT31;56625;54.322;18.582;2023-09-18T13:31:02;28.24;46.59
69436;SHT31;56625;54.322;18.582;2023-09-18T13:33:38;28.24;46.42
69436;SHT31;56625;54.322;18.582;2023-09-18T13:36:08;28.27;46.86
69436;SHT31;56625;54.322;18.582;2023-09-18T13:38:36;28.35;46.61
69436;SHT31;56625;54.322;18.582;2023-09-18T13:41:04;28.41;46.46
69436;SHT31;56625;54.322;18.582;2023-09-18T13:43:33;28.48;46.29
69436;SHT31;56625;54.322;18.582;2023-09-18T13:46:03;28.50;45.69
69436;SHT31;56625;54.322;18.582;2023-09-18T13:48:34;28.35;45.92
69436;SHT31;56625;54.322;18.582;2023-09-18T13:51:03;28.21;46.57
69436;SHT31;56625;54.322;18.582;2023-09-18T13:53:31;28.07;47.12
69436;SHT31;56625;54.322;18.582;2023-09-18T13:55:59;27.94;47.40
69436;SHT31;56625;54.322;18.582;2023-09-18T13:58:27;27.81;47.03
69436;SHT31;56625;54.322;18.582;2023-09-18T14:00:55;27.67;46.94
69436;SHT31;56625;54.322;18.582;2023-09-18T14:03:24;27.60;46.96
69436;SHT31;56625;54.322;18.582;2023-09-18T14:05:53;27.58;47.55
69436;SHT31;56625;54.322;18.582;2023-09-18T14:08:21;27.54;47.78
69436;SHT31;56625;54.322;18.582;2023-09-18T14:10:49;27.48;47.86
69436;SHT31;56625;54.322;18.582;2023-09-18T14:13:17;27.49;48.41
69436;SHT31;56625;54.322;18.582;2023-09-18T14:15:45;27.57;48.24
69436;SHT31;56625;54.322;18.582;2023-09-18T14:18:19;27.56;48.02
69436;SHT31;56625;54.322;18.582;2023-09-18T14:20:47;27.57;48.18
69436;SHT31;56625;54.322;18.582;2023-09-18T14:23:15;27.55;47.98
69436;SHT31;56625;54.322;18.582;2023-09-18T14:25:43;27.54;47.84
69436;SHT31;56625;54.322;18.582;2023-09-18T14:28:11;27.48;47.84
69436;SHT31;56625;54.322;18.582;2023-09-18T14:30:39;27.48;47.94
69436;SHT31;56625;54.322;18.582;2023-09-18T14:33:07;27.51;47.72
69436;SHT31;56625;54.322;18.582;2023-09-18T14:35:36;27.51;47.65
69436;SHT31;56625;54.322;18.582;2023-09-18T14:38:04;27.52;47.88
69436;SHT31;56625;54.322;18.582;2023-09-18T14:40:34;27.55;47.98
69436;SHT31;56625;54.322;18.582;2023-09-18T14:43:03;27.54;47.96
69436;SHT31;56625;54.322;18.582;2023-09-18T14:45:34;27.53;47.97
69436;SHT31;56625;54.322;18.582;2023-09-18T14:48:02;27.49;47.96
69436;SHT31;56625;54.322;18.582;2023-09-18T14:50:31;27.42;48.25
69436;SHT31;56625;54.322;18.582;2023-09-18T14:53:00;27.39;48.51
69436;SHT31;56625;54.322;18.582;2023-09-18T14:55:28;27.36;48.90
69436;SHT31;56625;54.322;18.582;2023-09-18T14:57:57;27.34;48.48
69436;SHT31;56625;54.322;18.582;2023-09-18T15:00:33;27.32;48.62
69436;SHT31;56625;54.322;18.582;2023-09-18T15:03:03;27.29;48.61
69436;SHT31;56625;54.322;18.582;2023-09-18T15:05:32;27.29;48.52
69436;SHT31;56625;54.322;18.582;2023-09-18T15:08:01;27.28;48.44
69436;SHT31;56625;54.322;18.582;2023-09-18T15:10:29;27.23;48.66
69436;SHT31;56625;54.322;18.582;2023-09-18T15:12:59;27.20;48.53
69436;SHT31;56625;54.322;18.582;2023-09-18T15:15:28;27.14;48.63
69436;SHT31;56625;54.322;18.582;2023-09-18T15:17:56;27.08;48.74
69436;SHT31;56625;54.322;18.582;2023-09-18T15:20:26;27.04;49.16
69436;SHT31;56625;54.322;18.582;2023-09-18T15:22:57;26.96;49.20
69436;SHT31;56625;54.322;18.582;2023-09-18T15:25:29;26.87;49.29
69436;SHT31;56625;54.322;18.582;2023-09-18T15:27:58;26.80;49.40
69436;SHT31;56625;54.322;18.582;2023-09-18T15:30:28;26.74;49.56
69436;SHT31;56625;54.322;18.582;2023-09-18T15:32:57;26.67;49.44
69436;SHT31;56625;54.322;18.582;2023-09-18T15:35:25;26.60;49.78
69436;SHT31;56625;54.322;18.582;2023-09-18T15:37:56;26.55;50.01
69436;SHT31;56625;54.322;18.582;2023-09-18T15:40:24;26.50;50.28
69436;SHT31;56625;54.322;18.582;2023-09-18T15:42:52;26.44;50.53
69436;SHT31;56625;54.322;18.582;2023-09-18T15:45:27;26.40;50.84
69436;SHT31;56625;54.322;18.582;2023-09-18T15:47:55;26.33;51.09
69436;SHT31;56625;54.322;18.582;2023-09-18T15:50:24;26.30;51.29
69436;SHT31;56625;54.322;18.582;2023-09-18T15:52:56;26.20;51.55
69436;SHT31;56625;54.322;18.582;2023-09-18T15:55:24;26.14;51.95
69436;SHT31;56625;54.322;18.582;2023-09-18T15:57:53;26.07;52.21
69436;SHT31;56625;54.322;18.582;2023-09-18T16:00:24;25.99;52.65
69436;SHT31;56625;54.322;18.582;2023-09-18T16:02:52;25.93;52.98
69436;SHT31;56625;54.322;18.582;2023-09-18T16:05:23;25.93;53.17
69436;SHT31;56625;54.322;18.582;2023-09-18T16:07:53;25.89;53.52
69436;SHT31;56625;54.322;18.582;2023-09-18T16:10:33;25.83;53.82
69436;SHT31;56625;54.322;18.582;2023-09-18T16:13:01;25.79;54.05
69436;SHT31;56625;54.322;18.582;2023-09-18T16:15:31;25.76;54.31
69436;SHT31;56625;54.322;18.582;2023-09-18T16:17:59;25.70;54.56
69436;SHT31;56625;54.322;18.582;2023-09-18T16:20:27;25.65;54.82
69436;SHT31;56625;54.322;18.582;2023-09-18T16:22:55;25.57;55.17
69436;SHT31;56625;54.322;18.582;2023-09-18T16:25:23;25.49;55.54
69436;SHT31;56625;54.322;18.582;2023-09-18T16:27:51;25.42;55.82
69436;SHT31;56625;54.322;18.582;2023-09-18T16:30:22;25.32;56.21
69436;SHT31;56625;54.322;18.582;2023-09-18T16:32:51;25.23;56.61
69436;SHT31;56625;54.322;18.582;2023-09-18T16:35:19;25.13;56.81
69436;SHT31;56625;54.322;18.582;2023-09-18T16:37:47;25.07;57.09
69436;SHT31;56625;54.322;18.582;2023-09-18T16:40:15;25.01;57.33
69436;SHT31;56625;54.322;18.582;2023-09-18T16:42:43;24.95;57.51
69436;SHT31;56625;54.322;18.582;2023-09-18T16:45:12;24.89;57.72
69436;SHT31;56625;54.322;18.582;2023-09-18T16:47:40;24.80;58.07
69436;SHT31;56625;54.322;18.582;2023-09-18T16:50:12;24.72;58.36
69436;SHT31;56625;54.322;18.582;2023-09-18T16:52:50;24.64;58.62
69436;SHT31;56625;54.322;18.582;2023-09-18T16:55:18;24.56;58.88
69436;SHT31;56625;54.322;18.582;2023-09-18T16:57:46;24.48;59.12
69436;SHT31;56625;54.322;18.582;2023-09-18T17:00:15;24.39;59.47
69436;SHT31;56625;54.322;18.582;2023-09-18T17:02:45;24.30;59.65
69436;SHT31;56625;54.322;18.582;2023-09-18T17:05:19;24.22;59.91
69436;SHT31;56625;54.322;18.582;2023-09-18T17:07:47;24.15;60.16
69436;SHT31;56625;54.322;18.582;2023-09-18T17:10:18;24.08;60.36
69436;SHT31;56625;54.322;18.582;2023-09-18T17:12:50;24.02;60.61
69436;SHT31;56625;54.322;18.582;2023-09-18T17:15:25;23.95;60.88
69436;SHT31;56625;54.322;18.582;2023-09-18T17:17:54;23.87;61.16
69436;SHT31;56625;54.322;18.582;2023-09-18T17:20:27;23.76;61.44